createdAt,value
2018-12-21T00:01:18.013Z,82.29
2018-12-21T00:06:21.672Z,82.34
2018-12-21T00:11:25.218Z,81.71
2018-12-21T00:16:28.807Z,82.63
2018-12-21T00:21:32.260Z,82.95
2018-12-21T00:26:35.680Z,82.71
2018-12-21T00:31:44.388Z,82.21
2018-12-21T00:36:53.048Z,81.33
2018-12-21T00:41:55.799Z,81.76
2018-12-21T00:47:02.006Z,81.21
2018-12-21T00:52:06.003Z,80.53
2018-12-21T00:57:09.584Z,79.82
2018-12-21T01:02:13.237Z,81.53
2018-12-21T01:07:16.776Z,82.61
2018-12-21T01:12:20.532Z,82.67
2018-12-21T01:17:24.012Z,83.51
2018-12-21T01:22:28.297Z,83.31
2018-12-21T01:27:31.785Z,83.93
2018-12-21T01:32:35.352Z,82.89
2018-12-21T01:37:38.804Z,81.94
2018-12-21T01:42:42.219Z,81.82
2018-12-21T01:47:45.737Z,81.44
2018-12-21T01:52:49.265Z,80.84
2018-12-21T01:57:52.722Z,81.11
2018-12-21T02:02:56.244Z,80.81
2018-12-21T02:07:59.909Z,80.82
2018-12-21T02:13:03.527Z,80.98
2018-12-21T02:18:07.032Z,81.21
2018-12-21T02:23:10.531Z,79.97
2018-12-21T02:28:14.172Z,80.77
2018-12-21T02:33:17.608Z,80.44
2018-12-21T02:38:21.082Z,80.70
2018-12-21T02:43:24.560Z,80.84
2018-12-21T02:48:28.106Z,80.16
2018-12-21T02:53:31.535Z,80.55
2018-12-21T02:58:35.197Z,80.81
2018-12-21T03:03:38.735Z,80.28
2018-12-21T03:08:42.328Z,80.42
2018-12-21T03:13:52.240Z,80.37
2018-12-21T03:18:56.431Z,80.63
2018-12-21T03:23:59.989Z,80.58
2018-12-21T03:29:03.565Z,80.28
2018-12-21T03:34:07.011Z,81.04
2018-12-21T03:39:10.789Z,81.68
2018-12-21T03:44:14.548Z,81.34
2018-12-21T03:49:18.086Z,80.80
2018-12-21T03:54:21.503Z,81.04
2018-12-21T03:59:25.259Z,81.23
2018-12-21T04:04:28.720Z,81.53
2018-12-21T04:09:32.141Z,81.52
2018-12-21T04:14:35.652Z,82.04
2018-12-21T04:19:39.316Z,81.39
2018-12-21T04:24:42.960Z,82.07
2018-12-21T04:29:46.374Z,82.01
2018-12-21T04:34:49.873Z,81.85
2018-12-21T04:39:53.313Z,82.29
2018-12-21T04:44:56.740Z,82.55
2018-12-21T04:50:00.383Z,83.12
2018-12-21T04:55:04.217Z,83.40
2018-12-21T05:00:08.133Z,83.93
2018-12-21T05:05:11.611Z,83.84
2018-12-21T05:10:15.158Z,84.19
2018-12-21T05:15:18.646Z,85.36
2018-12-21T05:20:22.169Z,87.01
2018-12-21T05:25:25.621Z,89.38
2018-12-21T05:30:29.085Z,90.38
2018-12-21T05:35:32.561Z,92.11
2018-12-21T05:40:36.011Z,92.80
2018-12-21T05:45:39.532Z,92.28
2018-12-21T05:50:43.107Z,92.48
2018-12-21T05:55:46.540Z,93.52
2018-12-21T06:00:50.124Z,93.44
2018-12-21T06:05:53.842Z,94.02
2018-12-21T06:10:57.259Z,94.28
2018-12-21T06:16:00.764Z,93.61
2018-12-21T06:21:04.240Z,93.48
2018-12-21T06:26:07.802Z,94.30
2018-12-21T06:31:11.407Z,94.27
2018-12-21T06:36:14.878Z,94.45
2018-12-21T06:41:18.400Z,94.21
2018-12-21T06:46:22.055Z,93.95
2018-12-21T06:51:26.199Z,94.12
2018-12-21T06:56:29.616Z,93.62
2018-12-21T07:01:33.208Z,93.72
2018-12-21T07:06:36.940Z,94.31
2018-12-21T07:11:40.392Z,93.63
2018-12-21T07:16:44.055Z,94.32
2018-12-21T07:21:47.595Z,93.75
2018-12-21T07:26:51.133Z,93.80
2018-12-21T07:31:54.812Z,93.94
2018-12-21T07:36:58.338Z,94.23
2018-12-21T07:42:01.845Z,93.49
2018-12-21T07:47:05.268Z,93.64
2018-12-21T07:52:08.800Z,93.25
2018-12-21T07:57:12.232Z,93.57
2018-12-21T08:02:15.748Z,93.57
2018-12-21T08:07:19.405Z,93.36
2018-12-21T08:12:22.835Z,93.45
2018-12-21T08:17:26.271Z,94.25
2018-12-21T08:22:29.920Z,93.77
2018-12-21T08:27:33.500Z,94.09
2018-12-21T08:32:37.136Z,94.60
2018-12-21T08:37:40.680Z,94.82
2018-12-21T08:42:44.936Z,95.05
2018-12-21T08:47:48.432Z,95.23
2018-12-21T08:52:52.337Z,95.77
2018-12-21T08:57:55.787Z,95.99
2018-12-21T09:02:59.332Z,96.17
2018-12-21T09:08:02.778Z,96.12
2018-12-21T09:13:06.272Z,96.28
2018-12-21T09:18:09.788Z,95.97
2018-12-21T09:23:13.332Z,95.64
2018-12-21T09:28:16.789Z,95.97
2018-12-21T09:33:20.272Z,96.08
2018-12-21T09:38:23.699Z,96.01
2018-12-21T09:43:27.265Z,96.16
2018-12-21T09:48:30.680Z,96.29
2018-12-21T09:53:34.271Z,96.19
2018-12-21T09:58:37.760Z,96.13
2018-12-21T10:03:41.320Z,96.12
2018-12-21T10:08:44.740Z,96.22
2018-12-21T10:13:48.406Z,95.63
2018-12-21T10:18:51.841Z,95.34
2018-12-21T10:23:55.336Z,94.27
2018-12-21T10:28:58.761Z,94.05
2018-12-21T10:34:02.188Z,93.47
2018-12-21T10:39:07.467Z,93.18
2018-12-21T10:44:10.924Z,92.60
2018-12-21T10:49:20.893Z,91.53
2018-12-21T10:54:26.958Z,90.92
2018-12-21T10:59:29.960Z,90.89
2018-12-21T11:04:33.589Z,90.21
2018-12-21T11:09:37.084Z,90.37
2018-12-21T11:14:40.895Z,90.21
2018-12-21T11:19:44.453Z,91.24
2018-12-21T11:24:49.029Z,90.71
2018-12-21T11:29:52.559Z,90.15
2018-12-21T11:34:56.101Z,90.24
2018-12-21T11:39:59.779Z,90.02
2018-12-21T11:45:03.248Z,89.92
2018-12-21T11:50:09.101Z,89.83
2018-12-21T11:55:12.624Z,89.71
2018-12-21T12:00:16.142Z,89.68
2018-12-21T12:05:19.681Z,89.54
2018-12-21T12:10:23.123Z,88.98
2018-12-21T12:15:28.586Z,89.11
2018-12-21T12:20:32.188Z,89.03
2018-12-21T12:25:35.664Z,88.37
2018-12-21T12:30:39.094Z,88.78
2018-12-21T12:35:42.644Z,88.58
2018-12-21T12:40:46.199Z,88.37
2018-12-21T12:45:49.781Z,88.53
2018-12-21T12:50:53.221Z,89.01
2018-12-21T12:55:56.828Z,89.14
2018-12-21T13:01:00.416Z,89.55
2018-12-21T13:06:04.120Z,88.73
2018-12-21T13:11:07.607Z,91.17
2018-12-21T13:16:11.088Z,93.05
2018-12-21T13:21:14.584Z,94.40
2018-12-21T13:26:18.077Z,94.25
2018-12-21T13:31:21.564Z,94.21
2018-12-21T13:36:25.076Z,94.10
2018-12-21T13:41:28.648Z,93.65
2018-12-21T13:46:32.151Z,92.99
2018-12-21T13:51:35.676Z,93.01
2018-12-21T13:56:39.133Z,93.17
2018-12-21T14:01:42.625Z,93.05
2018-12-21T14:06:52.564Z,92.14
2018-12-21T14:11:56.009Z,90.84
2018-12-21T14:16:59.624Z,89.97
2018-12-21T14:22:03.124Z,89.15
2018-12-21T14:27:06.612Z,89.29
2018-12-21T14:32:10.133Z,89.81
2018-12-21T14:37:13.677Z,88.83
2018-12-21T14:42:17.243Z,89.07
2018-12-21T14:47:20.709Z,88.02
2018-12-21T14:53:26.663Z,88.45
2018-12-21T14:58:30.083Z,87.06
2018-12-21T15:03:33.484Z,86.95
2018-12-21T15:08:37.009Z,87.17
2018-12-21T15:13:40.416Z,86.41
2018-12-21T15:18:44.042Z,86.37
2018-12-21T15:23:47.675Z,86.98
2018-12-21T15:34:00.686Z,86.10
2018-12-21T15:39:06.175Z,85.72
2018-12-21T15:44:09.616Z,85.42
2018-12-21T15:49:13.028Z,85.13
2018-12-21T15:54:16.673Z,85.23
2018-12-21T15:59:20.075Z,84.40
2018-12-21T16:04:23.604Z,84.50
2018-12-21T16:09:28.168Z,83.87
2018-12-21T16:14:34.669Z,84.83
2018-12-21T16:19:37.121Z,84.21
2018-12-21T16:24:40.648Z,84.40
2018-12-21T16:29:44.118Z,84.37
2018-12-21T16:34:47.746Z,84.80
2018-12-21T16:39:51.368Z,84.26
2018-12-21T16:44:54.884Z,83.16
2018-12-21T16:49:58.489Z,83.05
2018-12-21T16:55:02.095Z,83.15
2018-12-21T17:00:09.364Z,82.66
2018-12-21T17:05:13.136Z,82.33
2018-12-21T17:10:20.177Z,82.23
2018-12-21T17:15:23.837Z,82.34
2018-12-21T17:20:27.597Z,82.24
2018-12-21T17:25:32.244Z,82.02
2018-12-21T17:30:35.920Z,81.89
2018-12-21T17:35:39.632Z,82.39
2018-12-21T17:40:43.132Z,82.09
2018-12-21T17:45:46.760Z,81.56
2018-12-21T17:50:50.288Z,81.15
2018-12-21T17:55:53.708Z,80.35
2018-12-21T18:00:57.432Z,80.67
2018-12-21T18:06:00.868Z,81.23
2018-12-21T18:11:04.650Z,81.65
2018-12-21T18:16:08.076Z,81.65
2018-12-21T18:21:11.500Z,81.39
2018-12-21T18:26:15.188Z,80.44
2018-12-21T18:31:26.724Z,80.66
2018-12-21T18:36:30.251Z,80.58
2018-12-21T18:41:33.751Z,80.23
2018-12-21T18:46:37.180Z,79.65
2018-12-21T18:51:40.751Z,79.23
2018-12-21T18:56:55.371Z,78.21
2018-12-21T19:01:58.789Z,77.40
2018-12-21T19:07:02.490Z,75.72
2018-12-21T19:12:06.377Z,74.78
2018-12-21T19:17:09.893Z,73.92
2018-12-21T19:22:13.453Z,73.75
2018-12-21T19:27:17.043Z,73.08
2018-12-21T19:32:20.532Z,72.82
2018-12-21T19:37:24.804Z,72.91
2018-12-21T19:42:28.387Z,71.55
2018-12-21T19:47:31.844Z,71.91
2018-12-21T19:52:35.516Z,71.49
2018-12-21T19:57:38.928Z,70.80
2018-12-21T20:02:42.586Z,71.91
2018-12-21T20:07:46.060Z,71.90
2018-12-21T20:12:49.795Z,72.41
2018-12-21T20:17:53.421Z,72.24
2018-12-21T20:22:56.951Z,72.07
2018-12-21T20:28:00.452Z,71.93
2018-12-21T20:33:04.192Z,71.15
2018-12-21T20:38:07.763Z,72.29
2018-12-21T20:43:11.477Z,70.95
2018-12-21T20:48:14.990Z,71.63
2018-12-21T20:53:18.503Z,72.10
2018-12-21T20:58:56.997Z,72.05
2018-12-21T21:04:00.667Z,73.01
2018-12-21T21:09:05.381Z,72.11
2018-12-21T21:14:10.271Z,71.87
2018-12-21T21:19:14.200Z,71.11
2018-12-21T21:24:17.719Z,70.81
2018-12-21T21:29:21.360Z,70.32
2018-12-21T21:34:24.832Z,71.40
2018-12-21T21:39:28.336Z,71.09
2018-12-21T21:44:31.955Z,70.47
2018-12-21T21:49:35.460Z,70.85
2018-12-21T21:54:39.020Z,69.20
2018-12-21T21:59:42.620Z,70.70
2018-12-21T22:04:46.137Z,70.36
2018-12-21T22:09:49.828Z,71.25
2018-12-21T22:14:53.360Z,71.70
2018-12-21T22:19:57.111Z,72.58
2018-12-21T22:25:00.633Z,73.46
2018-12-21T22:30:06.348Z,74.20
2018-12-21T22:35:10.055Z,73.71
2018-12-21T22:40:13.769Z,72.47
2018-12-21T22:45:17.298Z,71.99
2018-12-21T22:50:21.471Z,70.55
2018-12-21T22:55:24.920Z,71.12
2018-12-21T23:00:34.866Z,71.96
2018-12-21T23:05:38.376Z,70.78
2018-12-21T23:10:41.785Z,72.45
2018-12-21T23:15:45.455Z,74.82
2018-12-21T23:20:49.071Z,75.46
2018-12-21T23:25:52.576Z,74.71
2018-12-21T23:30:56.024Z,74.00
2018-12-21T23:36:00.128Z,73.21
2018-12-21T23:41:03.547Z,73.84
2018-12-21T23:46:07.176Z,74.13
2018-12-21T23:51:10.734Z,73.90
2018-12-21T23:56:14.484Z,73.56
